sensor_id;sensor_type;location;lat;lon;timestamp;temperature;humidity
23703;DHT22;12030;50.376;8.762;2023-02-26T00:01:40;0.20;99.90
23703;DHT22;12030;50.376;8.762;2023-02-26T00:04:07;0.20;99.90
23703;DHT22;12030;50.376;8.762;2023-02-26T00:06:35;0.20;99.90
23703;DHT22;12030;50.376;8.762;2023-02-26T00:09:02;0.20;99.90
23703;DHT22;12030;50.376;8.762;2023-02-26T00:11:28;0.20;99.90
23703;DHT22;12030;50.376;8.762;2023-02-26T00:13:54;0.20;99.90
23703;DHT22;12030;50.376;8.762;2023-02-26T00:16:30;0.20;99.90
23703;DHT22;12030;50.376;8.762;2023-02-26T00:18:59;0.20;99.90
23703;DHT22;12030;50.376;8.762;2023-02-26T00:21:26;0.30;99.90
23703;DHT22;12030;50.376;8.762;2023-02-26T00:23:52;0.30;99.90
23703;DHT22;12030;50.376;8.762;2023-02-26T00:26:18;0.30;99.90
23703;DHT22;12030;50.376;8.762;2023-02-26T00:28:45;0.40;99.90
23703;DHT22;12030;50.376;8.762;2023-02-26T00:31:11;0.40;99.90
23703;DHT22;12030;50.376;8.762;2023-02-26T00:33:38;0.40;99.90
23703;DHT22;12030;50.376;8.762;2023-02-26T00:36:23;0.40;99.90
23703;DHT22;12030;50.376;8.762;2023-02-26T00:41:46;0.70;99.90
23703;DHT22;12030;50.376;8.762;2023-02-26T00:44:11;0.40;99.90
23703;DHT22;12030;50.376;8.762;2023-02-26T00:46:49;0.40;99.90
23703;DHT22;12030;50.376;8.762;2023-02-26T00:52:27;0.50;99.90
23703;DHT22;12030;50.376;8.762;2023-02-26T00:54:53;0.60;99.90
23703;DHT22;12030;50.376;8.762;2023-02-26T00:57:19;0.50;99.90
23703;DHT22;12030;50.376;8.762;2023-02-26T00:59:44;0.50;99.90
23703;DHT22;12030;50.376;8.762;2023-02-26T01:02:10;0.50;99.90
23703;DHT22;12030;50.376;8.762;2023-02-26T01:04:35;0.50;99.90
23703;DHT22;12030;50.376;8.762;2023-02-26T01:07:01;0.50;99.90
23703;DHT22;12030;50.376;8.762;2023-02-26T01:09:31;0.50;99.90
23703;DHT22;12030;50.376;8.762;2023-02-26T01:12:03;0.50;99.90
23703;DHT22;12030;50.376;8.762;2023-02-26T01:14:30;0.50;99.90
23703;DHT22;12030;50.376;8.762;2023-02-26T01:17:03;0.60;99.90
23703;DHT22;12030;50.376;8.762;2023-02-26T01:25:04;0.60;99.90
23703;DHT22;12030;50.376;8.762;2023-02-26T01:27:31;0.60;99.90
23703;DHT22;12030;50.376;8.762;2023-02-26T01:29:57;0.60;99.90
23703;DHT22;12030;50.376;8.762;2023-02-26T01:35:41;0.60;99.90
23703;DHT22;12030;50.376;8.762;2023-02-26T01:38:23;0.60;99.90
23703;DHT22;12030;50.376;8.762;2023-02-26T01:46:07;0.60;99.90
23703;DHT22;12030;50.376;8.762;2023-02-26T01:48:58;0.50;99.90
23703;DHT22;12030;50.376;8.762;2023-02-26T01:54:09;0.50;99.90
23703;DHT22;12030;50.376;8.762;2023-02-26T01:56:35;0.40;99.90
23703;DHT22;12030;50.376;8.762;2023-02-26T01:59:05;0.50;99.90
23703;DHT22;12030;50.376;8.762;2023-02-26T02:01:33;0.40;99.90
23703;DHT22;12030;50.376;8.762;2023-02-26T02:04:00;0.50;99.90
23703;DHT22;12030;50.376;8.762;2023-02-26T02:06:28;0.50;99.90
23703;DHT22;12030;50.376;8.762;2023-02-26T02:08:55;0.40;99.90
23703;DHT22;12030;50.376;8.762;2023-02-26T02:11:21;0.40;99.90
23703;DHT22;12030;50.376;8.762;2023-02-26T02:13:59;0.40;99.90
23703;DHT22;12030;50.376;8.762;2023-02-26T02:21:51;0.40;99.90
23703;DHT22;12030;50.376;8.762;2023-02-26T02:24:22;0.50;99.90
23703;DHT22;12030;50.376;8.762;2023-02-26T02:32:20;0.30;99.90
23703;DHT22;12030;50.376;8.762;2023-02-26T02:34:58;0.30;99.90
23703;DHT22;12030;50.376;8.762;2023-02-26T02:37:56;0.30;99.90
23703;DHT22;12030;50.376;8.762;2023-02-26T02:40:30;0.30;99.90
23703;DHT22;12030;50.376;8.762;2023-02-26T02:43:09;0.20;99.90
23703;DHT22;12030;50.376;8.762;2023-02-26T02:45:46;0.20;99.90
23703;DHT22;12030;50.376;8.762;2023-02-26T02:48:38;0.20;99.90
23703;DHT22;12030;50.376;8.762;2023-02-26T02:51:11;0.20;99.90
23703;DHT22;12030;50.376;8.762;2023-02-26T02:54:14;0.10;99.90
23703;DHT22;12030;50.376;8.762;2023-02-26T02:57:02;0.00;99.90
23703;DHT22;12030;50.376;8.762;2023-02-26T02:59:44;0.10;99.90
23703;DHT22;12030;50.376;8.762;2023-02-26T03:04:58;0.00;99.90
23703;DHT22;12030;50.376;8.762;2023-02-26T03:07:23;0.00;99.90
23703;DHT22;12030;50.376;8.762;2023-02-26T03:09:49;-0.10;99.90
23703;DHT22;12030;50.376;8.762;2023-02-26T03:12:15;0.10;99.90
23703;DHT22;12030;50.376;8.762;2023-02-26T03:14:41;-0.10;99.90
23703;DHT22;12030;50.376;8.762;2023-02-26T03:22:52;-0.10;99.90
23703;DHT22;12030;50.376;8.762;2023-02-26T03:31:20;-0.30;99.90
23703;DHT22;12030;50.376;8.762;2023-02-26T03:33:53;-0.50;99.90
23703;DHT22;12030;50.376;8.762;2023-02-26T03:36:28;-0.50;99.90
23703;DHT22;12030;50.376;8.762;2023-02-26T03:39:11;-0.50;99.90
23703;DHT22;12030;50.376;8.762;2023-02-26T03:41:44;-0.50;99.90
23703;DHT22;12030;50.376;8.762;2023-02-26T03:44:19;-0.50;99.90
23703;DHT22;12030;50.376;8.762;2023-02-26T03:46:53;-0.60;99.90
23703;DHT22;12030;50.376;8.762;2023-02-26T03:49:28;-0.70;99.90
23703;DHT22;12030;50.376;8.762;2023-02-26T03:51:57;-0.60;99.90
23703;DHT22;12030;50.376;8.762;2023-02-26T03:54:33;-0.60;99.90
23703;DHT22;12030;50.376;8.762;2023-02-26T03:57:00;-0.50;99.90
23703;DHT22;12030;50.376;8.762;2023-02-26T03:59:26;-0.50;99.90
23703;DHT22;12030;50.376;8.762;2023-02-26T04:04:34;-0.50;99.90
23703;DHT22;12030;50.376;8.762;2023-02-26T04:07:09;-0.50;99.90
23703;DHT22;12030;50.376;8.762;2023-02-26T04:09:36;-0.60;99.90
23703;DHT22;12030;50.376;8.762;2023-02-26T04:12:01;-0.70;99.90
23703;DHT22;12030;50.376;8.762;2023-02-26T04:14:27;-0.70;99.90
23703;DHT22;12030;50.376;8.762;2023-02-26T04:16:53;-0.70;99.90
23703;DHT22;12030;50.376;8.762;2023-02-26T04:19:19;-0.70;99.90
23703;DHT22;12030;50.376;8.762;2023-02-26T04:21:44;-0.70;99.90
23703;DHT22;12030;50.376;8.762;2023-02-26T04:24:10;-0.80;99.90
23703;DHT22;12030;50.376;8.762;2023-02-26T04:26:36;-0.80;99.90
23703;DHT22;12030;50.376;8.762;2023-02-26T04:29:01;-0.80;99.90
23703;DHT22;12030;50.376;8.762;2023-02-26T04:31:27;-0.80;99.90
23703;DHT22;12030;50.376;8.762;2023-02-26T04:33:53;-0.70;99.90
23703;DHT22;12030;50.376;8.762;2023-02-26T04:36:19;-0.80;99.90
23703;DHT22;12030;50.376;8.762;2023-02-26T04:38:44;-0.70;99.90
23703;DHT22;12030;50.376;8.762;2023-02-26T04:41:09;-0.70;99.90
23703;DHT22;12030;50.376;8.762;2023-02-26T04:43:35;-0.70;99.90
23703;DHT22;12030;50.376;8.762;2023-02-26T04:46:02;-0.70;99.90
23703;DHT22;12030;50.376;8.762;2023-02-26T04:48:27;-0.60;99.90
23703;DHT22;12030;50.376;8.762;2023-02-26T04:50:53;-0.60;99.90
23703;DHT22;12030;50.376;8.762;2023-02-26T04:53:19;-0.70;99.90
23703;DHT22;12030;50.376;8.762;2023-02-26T04:55:47;-0.80;99.90
23703;DHT22;12030;50.376;8.762;2023-02-26T04:58:13;-0.80;99.90
23703;DHT22;12030;50.376;8.762;2023-02-26T05:00:38;-0.70;99.90
23703;DHT22;12030;50.376;8.762;2023-02-26T05:03:05;-0.70;99.90
23703;DHT22;12030;50.376;8.762;2023-02-26T05:05:31;-0.70;99.90
23703;DHT22;12030;50.376;8.762;2023-02-26T05:07:56;-0.80;99.90
23703;DHT22;12030;50.376;8.762;2023-02-26T05:10:23;-0.70;99.90
23703;DHT22;12030;50.376;8.762;2023-02-26T05:12:49;-0.70;99.90
23703;DHT22;12030;50.376;8.762;2023-02-26T05:15:15;-0.80;99.90
23703;DHT22;12030;50.376;8.762;2023-02-26T05:17:40;-0.80;99.90
23703;DHT22;12030;50.376;8.762;2023-02-26T05:20:06;-0.90;99.90
23703;DHT22;12030;50.376;8.762;2023-02-26T05:22:35;-0.90;99.90
23703;DHT22;12030;50.376;8.762;2023-02-26T05:25:00;-0.90;99.90
23703;DHT22;12030;50.376;8.762;2023-02-26T05:27:26;-0.80;99.90
23703;DHT22;12030;50.376;8.762;2023-02-26T05:29:51;-0.80;99.90
23703;DHT22;12030;50.376;8.762;2023-02-26T05:32:17;-0.80;99.90
23703;DHT22;12030;50.376;8.762;2023-02-26T05:34:42;-0.60;99.90
23703;DHT22;12030;50.376;8.762;2023-02-26T05:37:08;-0.80;99.90
23703;DHT22;12030;50.376;8.762;2023-02-26T05:39:33;-0.70;99.90
23703;DHT22;12030;50.376;8.762;2023-02-26T05:41:59;-0.80;99.90
23703;DHT22;12030;50.376;8.762;2023-02-26T05:44:25;-0.80;99.90
23703;DHT22;12030;50.376;8.762;2023-02-26T05:46:50;-0.70;99.90
23703;DHT22;12030;50.376;8.762;2023-02-26T05:49:16;-0.70;99.90
23703;DHT22;12030;50.376;8.762;2023-02-26T05:51:41;-0.60;99.90
23703;DHT22;12030;50.376;8.762;2023-02-26T05:54:08;-0.60;99.90
23703;DHT22;12030;50.376;8.762;2023-02-26T05:56:34;-0.60;99.90
23703;DHT22;12030;50.376;8.762;2023-02-26T05:58:59;-0.50;99.90
23703;DHT22;12030;50.376;8.762;2023-02-26T06:01:25;-0.50;99.90
23703;DHT22;12030;50.376;8.762;2023-02-26T06:03:50;-0.20;99.90
23703;DHT22;12030;50.376;8.762;2023-02-26T06:06:17;-0.60;99.90
23703;DHT22;12030;50.376;8.762;2023-02-26T06:08:43;-0.50;99.90
23703;DHT22;12030;50.376;8.762;2023-02-26T06:11:09;-0.50;99.90
23703;DHT22;12030;50.376;8.762;2023-02-26T06:13:35;-0.50;99.90
23703;DHT22;12030;50.376;8.762;2023-02-26T06:16:00;-0.50;99.90
23703;DHT22;12030;50.376;8.762;2023-02-26T06:18:26;-0.50;99.90
23703;DHT22;12030;50.376;8.762;2023-02-26T06:20:52;-0.50;99.90
23703;DHT22;12030;50.376;8.762;2023-02-26T06:23:17;-0.50;99.90
23703;DHT22;12030;50.376;8.762;2023-02-26T06:25:43;-0.40;99.90
23703;DHT22;12030;50.376;8.762;2023-02-26T06:28:09;-0.30;99.90
23703;DHT22;12030;50.376;8.762;2023-02-26T06:30:35;-0.20;99.90
23703;DHT22;12030;50.376;8.762;2023-02-26T06:33:01;-0.10;99.90
23703;DHT22;12030;50.376;8.762;2023-02-26T06:35:27;-0.10;99.90
23703;DHT22;12030;50.376;8.762;2023-02-26T06:37:57;-0.10;99.90
23703;DHT22;12030;50.376;8.762;2023-02-26T06:40:23;0.00;99.90
23703;DHT22;12030;50.376;8.762;2023-02-26T06:42:48;0.00;99.90
23703;DHT22;12030;50.376;8.762;2023-02-26T06:45:14;0.00;99.90
23703;DHT22;12030;50.376;8.762;2023-02-26T06:47:39;0.00;99.90
23703;DHT22;12030;50.376;8.762;2023-02-26T06:50:05;0.00;99.90
23703;DHT22;12030;50.376;8.762;2023-02-26T06:52:31;0.00;99.90
23703;DHT22;12030;50.376;8.762;2023-02-26T06:54:57;0.00;99.90
23703;DHT22;12030;50.376;8.762;2023-02-26T06:57:23;0.00;99.90
23703;DHT22;12030;50.376;8.762;2023-02-26T06:59:48;0.00;99.90
23703;DHT22;12030;50.376;8.762;2023-02-26T07:02:19;0.10;99.90
23703;DHT22;12030;50.376;8.762;2023-02-26T07:04:45;0.10;99.90
23703;DHT22;12030;50.376;8.762;2023-02-26T07:07:11;0.00;99.90
23703;DHT22;12030;50.376;8.762;2023-02-26T07:09:37;0.10;99.90
23703;DHT22;12030;50.376;8.762;2023-02-26T07:12:03;0.10;99.90
23703;DHT22;12030;50.376;8.762;2023-02-26T07:14:29;0.20;99.90
23703;DHT22;12030;50.376;8.762;2023-02-26T07:16:54;0.20;99.90
23703;DHT22;12030;50.376;8.762;2023-02-26T07:19:20;0.30;99.90
23703;DHT22;12030;50.376;8.762;2023-02-26T07:21:46;0.40;99.90
23703;DHT22;12030;50.376;8.762;2023-02-26T07:24:13;0.40;99.90
23703;DHT22;12030;50.376;8.762;2023-02-26T07:26:38;0.40;99.90
23703;DHT22;12030;50.376;8.762;2023-02-26T07:29:04;0.50;99.90
23703;DHT22;12030;50.376;8.762;2023-02-26T07:31:30;0.40;99.90
23703;DHT22;12030;50.376;8.762;2023-02-26T07:33:56;0.50;99.90
23703;DHT22;12030;50.376;8.762;2023-02-26T07:36:21;0.60;99.90
23703;DHT22;12030;50.376;8.762;2023-02-26T07:38:47;0.60;99.90
23703;DHT22;12030;50.376;8.762;2023-02-26T07:41:13;0.60;99.90
23703;DHT22;12030;50.376;8.762;2023-02-26T07:43:38;0.70;99.90
23703;DHT22;12030;50.376;8.762;2023-02-26T07:46:04;0.70;99.90
23703;DHT22;12030;50.376;8.762;2023-02-26T07:48:29;0.80;99.90
23703;DHT22;12030;50.376;8.762;2023-02-26T07:50:55;0.80;99.90
23703;DHT22;12030;50.376;8.762;2023-02-26T07:53:21;0.80;99.90
23703;DHT22;12030;50.376;8.762;2023-02-26T07:55:47;1.00;99.90
23703;DHT22;12030;50.376;8.762;2023-02-26T07:58:13;1.10;99.90
23703;DHT22;12030;50.376;8.762;2023-02-26T08:00:38;1.20;99.90
23703;DHT22;12030;50.376;8.762;2023-02-26T08:03:04;1.30;99.90
23703;DHT22;12030;50.376;8.762;2023-02-26T08:05:30;1.40;99.90
23703;DHT22;12030;50.376;8.762;2023-02-26T08:07:55;1.40;99.90
23703;DHT22;12030;50.376;8.762;2023-02-26T08:10:21;1.50;99.90
23703;DHT22;12030;50.376;8.762;2023-02-26T08:12:47;1.50;99.90
23703;DHT22;12030;50.376;8.762;2023-02-26T08:15:12;1.50;99.90
23703;DHT22;12030;50.376;8.762;2023-02-26T08:17:39;1.50;99.90
23703;DHT22;12030;50.376;8.762;2023-02-26T08:20:06;1.60;99.90
23703;DHT22;12030;50.376;8.762;2023-02-26T08:22:31;1.70;99.90
23703;DHT22;12030;50.376;8.762;2023-02-26T08:24:57;1.70;99.90
23703;DHT22;12030;50.376;8.762;2023-02-26T08:27:23;1.70;99.90
23703;DHT22;12030;50.376;8.762;2023-02-26T08:29:48;1.60;99.90
23703;DHT22;12030;50.376;8.762;2023-02-26T08:32:15;1.50;99.90
23703;DHT22;12030;50.376;8.762;2023-02-26T08:34:40;1.40;99.90
23703;DHT22;12030;50.376;8.762;2023-02-26T08:37:06;1.40;99.90
23703;DHT22;12030;50.376;8.762;2023-02-26T08:39:34;1.40;99.90
23703;DHT22;12030;50.376;8.762;2023-02-26T08:42:06;1.40;99.90
23703;DHT22;12030;50.376;8.762;2023-02-26T08:44:32;1.40;99.90
23703;DHT22;12030;50.376;8.762;2023-02-26T08:46:58;1.50;99.90
23703;DHT22;12030;50.376;8.762;2023-02-26T08:49:23;1.70;99.90
23703;DHT22;12030;50.376;8.762;2023-02-26T08:51:49;1.80;99.90
23703;DHT22;12030;50.376;8.762;2023-02-26T08:54:15;1.90;99.90
23703;DHT22;12030;50.376;8.762;2023-02-26T08:56:40;2.00;99.90
23703;DHT22;12030;50.376;8.762;2023-02-26T08:59:06;2.00;99.90
23703;DHT22;12030;50.376;8.762;2023-02-26T09:01:33;2.00;99.90
23703;DHT22;12030;50.376;8.762;2023-02-26T09:03:58;2.00;99.90
23703;DHT22;12030;50.376;8.762;2023-02-26T09:06:24;2.00;99.90
23703;DHT22;12030;50.376;8.762;2023-02-26T09:08:49;2.10;99.90
23703;DHT22;12030;50.376;8.762;2023-02-26T09:11:15;2.20;99.90
23703;DHT22;12030;50.376;8.762;2023-02-26T09:13:40;2.20;99.90
23703;DHT22;12030;50.376;8.762;2023-02-26T09:16:07;2.20;99.90
23703;DHT22;12030;50.376;8.762;2023-02-26T09:18:32;2.20;99.90
23703;DHT22;12030;50.376;8.762;2023-02-26T09:20:58;2.20;99.90
23703;DHT22;12030;50.376;8.762;2023-02-26T09:23:23;2.30;99.90
23703;DHT22;12030;50.376;8.762;2023-02-26T09:25:53;2.30;99.90
23703;DHT22;12030;50.376;8.762;2023-02-26T09:28:20;2.20;99.90
23703;DHT22;12030;50.376;8.762;2023-02-26T09:30:46;2.00;99.90
23703;DHT22;12030;50.376;8.762;2023-02-26T09:33:12;1.90;99.90
23703;DHT22;12030;50.376;8.762;2023-02-26T09:35:38;1.90;99.90
23703;DHT22;12030;50.376;8.762;2023-02-26T09:38:03;1.90;99.90
23703;DHT22;12030;50.376;8.762;2023-02-26T09:46:46;1.90;99.90
23703;DHT22;12030;50.376;8.762;2023-02-26T09:49:14;2.10;99.90
23703;DHT22;12030;50.376;8.762;2023-02-26T09:51:41;2.20;99.90
23703;DHT22;12030;50.376;8.762;2023-02-26T09:54:15;2.30;99.90
23703;DHT22;12030;50.376;8.762;2023-02-26T09:56:42;2.40;99.90
23703;DHT22;12030;50.376;8.762;2023-02-26T09:59:09;2.70;99.90
23703;DHT22;12030;50.376;8.762;2023-02-26T10:01:47;2.90;99.90
23703;DHT22;12030;50.376;8.762;2023-02-26T10:07:43;3.10;99.90
23703;DHT22;12030;50.376;8.762;2023-02-26T10:10:19;3.10;99.60
23703;DHT22;12030;50.376;8.762;2023-02-26T10:12:47;3.10;99.60
23703;DHT22;12030;50.376;8.762;2023-02-26T10:15:22;3.10;99.80
23703;DHT22;12030;50.376;8.762;2023-02-26T10:18:12;3.00;99.70
23703;DHT22;12030;50.376;8.762;2023-02-26T10:20:59;3.00;99.00
23703;DHT22;12030;50.376;8.762;2023-02-26T10:26:21;3.10;99.20
23703;DHT22;12030;50.376;8.762;2023-02-26T10:29:17;3.30;99.30
23703;DHT22;12030;50.376;8.762;2023-02-26T10:31:56;3.50;99.30
23703;DHT22;12030;50.376;8.762;2023-02-26T10:37:20;3.70;98.80
23703;DHT22;12030;50.376;8.762;2023-02-26T10:42:41;3.80;97.80
23703;DHT22;12030;50.376;8.762;2023-02-26T10:48:06;3.90;98.00
23703;DHT22;12030;50.376;8.762;2023-02-26T10:50:35;4.00;97.40
23703;DHT22;12030;50.376;8.762;2023-02-26T10:53:01;4.10;98.10
23703;DHT22;12030;50.376;8.762;2023-02-26T11:00:29;4.30;97.40
23703;DHT22;12030;50.376;8.762;2023-02-26T11:02:55;4.30;97.10
23703;DHT22;12030;50.376;8.762;2023-02-26T11:05:24;4.40;97.10
23703;DHT22;12030;50.376;8.762;2023-02-26T11:07:54;4.30;97.20
23703;DHT22;12030;50.376;8.762;2023-02-26T11:10:23;4.30;97.00
23703;DHT22;12030;50.376;8.762;2023-02-26T11:12:50;4.30;97.40
23703;DHT22;12030;50.376;8.762;2023-02-26T11:15:20;4.30;97.40
23703;DHT22;12030;50.376;8.762;2023-02-26T11:17:53;4.30;97.30
23703;DHT22;12030;50.376;8.762;2023-02-26T11:20:41;4.10;96.50
23703;DHT22;12030;50.376;8.762;2023-02-26T11:23:18;4.10;96.60
23703;DHT22;12030;50.376;8.762;2023-02-26T11:25:45;4.00;97.00
23703;DHT22;12030;50.376;8.762;2023-02-26T11:28:30;3.80;96.90
23703;DHT22;12030;50.376;8.762;2023-02-26T11:30:56;3.80;97.30
23703;DHT22;12030;50.376;8.762;2023-02-26T11:33:35;3.80;97.40
23703;DHT22;12030;50.376;8.762;2023-02-26T11:36:05;3.90;97.70
23703;DHT22;12030;50.376;8.762;2023-02-26T11:38:32;4.10;97.40
23703;DHT22;12030;50.376;8.762;2023-02-26T11:41:00;4.20;97.70
23703;DHT22;12030;50.376;8.762;2023-02-26T11:43:34;4.20;97.90
23703;DHT22;12030;50.376;8.762;2023-02-26T11:46:01;4.30;97.00
23703;DHT22;12030;50.376;8.762;2023-02-26T11:48:45;4.30;97.30
23703;DHT22;12030;50.376;8.762;2023-02-26T11:51:14;4.50;97.10
23703;DHT22;12030;50.376;8.762;2023-02-26T11:53:47;4.60;96.80
23703;DHT22;12030;50.376;8.762;2023-02-26T11:56:19;4.50;96.00
23703;DHT22;12030;50.376;8.762;2023-02-26T11:58:45;4.40;96.00
23703;DHT22;12030;50.376;8.762;2023-02-26T12:01:13;4.40;96.30
23703;DHT22;12030;50.376;8.762;2023-02-26T12:03:44;4.30;96.00
23703;DHT22;12030;50.376;8.762;2023-02-26T12:06:19;4.20;96.40
23703;DHT22;12030;50.376;8.762;2023-02-26T12:08:46;4.20;96.80
23703;DHT22;12030;50.376;8.762;2023-02-26T12:12:07;4.10;96.90
23703;DHT22;12030;50.376;8.762;2023-02-26T12:19:50;4.20;96.70
23703;DHT22;12030;50.376;8.762;2023-02-26T12:25:03;4.10;97.30
23703;DHT22;12030;50.376;8.762;2023-02-26T12:27:57;4.00;96.80
23703;DHT22;12030;50.376;8.762;2023-02-26T12:30:58;4.10;97.20
23703;DHT22;12030;50.376;8.762;2023-02-26T12:33:54;4.20;97.10
23703;DHT22;12030;50.376;8.762;2023-02-26T12:36:25;4.20;97.70
23703;DHT22;12030;50.376;8.762;2023-02-26T12:39:10;4.20;97.80
23703;DHT22;12030;50.376;8.762;2023-02-26T12:53:14;4.00;97.80
23703;DHT22;12030;50.376;8.762;2023-02-26T12:56:01;4.00;97.80
23703;DHT22;12030;50.376;8.762;2023-02-26T12:58:52;4.20;97.90
23703;DHT22;12030;50.376;8.762;2023-02-26T13:04:27;4.30;97.60
23703;DHT22;12030;50.376;8.762;2023-02-26T13:07:05;4.30;97.40
23703;DHT22;12030;50.376;8.762;2023-02-26T13:21:21;4.10;97.10
23703;DHT22;12030;50.376;8.762;2023-02-26T13:24:01;4.20;96.80
23703;DHT22;12030;50.376;8.762;2023-02-26T13:26:30;4.10;97.10
23703;DHT22;12030;50.376;8.762;2023-02-26T13:29:14;4.10;96.70
23703;DHT22;12030;50.376;8.762;2023-02-26T13:31:44;4.30;96.80
23703;DHT22;12030;50.376;8.762;2023-02-26T13:34:22;4.30;96.00
23703;DHT22;12030;50.376;8.762;2023-02-26T13:36:50;4.40;95.90
23703;DHT22;12030;50.376;8.762;2023-02-26T13:39:35;4.50;95.60
23703;DHT22;12030;50.376;8.762;2023-02-26T13:47:36;4.50;95.30
23703;DHT22;12030;50.376;8.762;2023-02-26T13:53:29;4.90;94.70
23703;DHT22;12030;50.376;8.762;2023-02-26T14:12:01;5.30;92.00
23703;DHT22;12030;50.376;8.762;2023-02-26T14:14:39;5.30;92.10
23703;DHT22;12030;50.376;8.762;2023-02-26T14:19:40;5.60;91.40
23703;DHT22;12030;50.376;8.762;2023-02-26T14:27:44;4.70;90.60
23703;DHT22;12030;50.376;8.762;2023-02-26T14:33:06;4.40;90.90
23703;DHT22;12030;50.376;8.762;2023-02-26T14:35:47;4.60;91.00
23703;DHT22;12030;50.376;8.762;2023-02-26T14:38:25;4.80;91.50
23703;DHT22;12030;50.376;8.762;2023-02-26T14:41:43;4.70;91.60
23703;DHT22;12030;50.376;8.762;2023-02-26T14:43:49;4.50;91.40
23703;DHT22;12030;50.376;8.762;2023-02-26T14:46:18;4.10;91.60
23703;DHT22;12030;50.376;8.762;2023-02-26T14:48:45;4.10;92.00
23703;DHT22;12030;50.376;8.762;2023-02-26T14:51:30;4.20;92.50
23703;DHT22;12030;50.376;8.762;2023-02-26T14:54:30;4.30;91.50
23703;DHT22;12030;50.376;8.762;2023-02-26T15:02:32;4.40;91.60
23703;DHT22;12030;50.376;8.762;2023-02-26T15:05:19;4.20;91.20
23703;DHT22;12030;50.376;8.762;2023-02-26T15:08:10;4.30;90.80
23703;DHT22;12030;50.376;8.762;2023-02-26T15:15:52;4.70;90.00
23703;DHT22;12030;50.376;8.762;2023-02-26T15:21:24;4.90;89.20
23703;DHT22;12030;50.376;8.762;2023-02-26T15:23:56;4.80;88.60
23703;DHT22;12030;50.376;8.762;2023-02-26T15:26:28;4.60;89.30
23703;DHT22;12030;50.376;8.762;2023-02-26T15:28:56;4.50;90.60
23703;DHT22;12030;50.376;8.762;2023-02-26T15:31:39;4.40;90.80
23703;DHT22;12030;50.376;8.762;2023-02-26T15:34:05;4.50;90.00
23703;DHT22;12030;50.376;8.762;2023-02-26T15:36:31;4.40;89.30
23703;DHT22;12030;50.376;8.762;2023-02-26T15:38:59;4.20;89.20
23703;DHT22;12030;50.376;8.762;2023-02-26T15:41:28;4.40;90.10
23703;DHT22;12030;50.376;8.762;2023-02-26T15:44:07;4.50;90.00
23703;DHT22;12030;50.376;8.762;2023-02-26T15:46:37;4.40;90.20
23703;DHT22;12030;50.376;8.762;2023-02-26T15:49:14;4.10;90.80
23703;DHT22;12030;50.376;8.762;2023-02-26T15:51:42;4.20;91.00
23703;DHT22;12030;50.376;8.762;2023-02-26T15:54:16;4.10;90.70
23703;DHT22;12030;50.376;8.762;2023-02-26T15:56:42;4.10;90.60
23703;DHT22;12030;50.376;8.762;2023-02-26T15:59:18;4.10;90.90
23703;DHT22;12030;50.376;8.762;2023-02-26T16:01:44;4.10;90.20
23703;DHT22;12030;50.376;8.762;2023-02-26T16:04:16;4.10;90.10
23703;DHT22;12030;50.376;8.762;2023-02-26T16:06:46;4.10;90.30
23703;DHT22;12030;50.376;8.762;2023-02-26T16:09:18;4.00;90.70
23703;DHT22;12030;50.376;8.762;2023-02-26T16:11:45;4.10;90.50
23703;DHT22;12030;50.376;8.762;2023-02-26T16:14:21;4.00;90.80
23703;DHT22;12030;50.376;8.762;2023-02-26T16:16:51;4.00;90.70
23703;DHT22;12030;50.376;8.762;2023-02-26T16:21:54;3.90;90.40
23703;DHT22;12030;50.376;8.762;2023-02-26T16:24:21;3.90;90.60
23703;DHT22;12030;50.376;8.762;2023-02-26T16:26:56;3.90;90.40
23703;DHT22;12030;50.376;8.762;2023-02-26T16:29:28;3.90;90.40
23703;DHT22;12030;50.376;8.762;2023-02-26T16:31:56;3.70;90.20
23703;DHT22;12030;50.376;8.762;2023-02-26T16:34:34;3.60;90.50
23703;DHT22;12030;50.376;8.762;2023-02-26T16:40:15;3.40;91.40
23703;DHT22;12030;50.376;8.762;2023-02-26T16:47:59;3.20;91.80
23703;DHT22;12030;50.376;8.762;2023-02-26T16:50:29;3.20;92.40
23703;DHT22;12030;50.376;8.762;2023-02-26T16:53:00;3.20;92.80
23703;DHT22;12030;50.376;8.762;2023-02-26T16:55:29;3.20;92.30
23703;DHT22;12030;50.376;8.762;2023-02-26T16:57:57;3.10;92.60
23703;DHT22;12030;50.376;8.762;2023-02-26T17:00:27;3.00;92.50
23703;DHT22;12030;50.376;8.762;2023-02-26T17:03:03;3.00;92.70
23703;DHT22;12030;50.376;8.762;2023-02-26T17:05:33;2.90;92.50
23703;DHT22;12030;50.376;8.762;2023-02-26T17:08:20;2.90;92.00
23703;DHT22;12030;50.376;8.762;2023-02-26T17:10:50;2.80;91.90
23703;DHT22;12030;50.376;8.762;2023-02-26T17:13:24;2.90;91.60
23703;DHT22;12030;50.376;8.762;2023-02-26T17:15:50;2.70;91.40
23703;DHT22;12030;50.376;8.762;2023-02-26T17:18:18;2.60;91.40
23703;DHT22;12030;50.376;8.762;2023-02-26T17:20:44;2.50;91.60
23703;DHT22;12030;50.376;8.762;2023-02-26T17:23:13;2.40;91.60
23703;DHT22;12030;50.376;8.762;2023-02-26T17:25:41;2.40;91.80
23703;DHT22;12030;50.376;8.762;2023-02-26T17:28:11;2.30;91.90
23703;DHT22;12030;50.376;8.762;2023-02-26T17:30:37;2.30;91.90
23703;DHT22;12030;50.376;8.762;2023-02-26T17:33:03;2.30;92.00
23703;DHT22;12030;50.376;8.762;2023-02-26T17:35:29;2.30;92.00
23703;DHT22;12030;50.376;8.762;2023-02-26T17:37:56;2.40;91.90
23703;DHT22;12030;50.376;8.762;2023-02-26T17:40:23;2.30;92.00
23703;DHT22;12030;50.376;8.762;2023-02-26T17:42:49;2.30;92.30
23703;DHT22;12030;50.376;8.762;2023-02-26T17:45:16;2.30;92.30
23703;DHT22;12030;50.376;8.762;2023-02-26T17:47:43;2.20;92.10
23703;DHT22;12030;50.376;8.762;2023-02-26T17:50:22;2.20;92.10
23703;DHT22;12030;50.376;8.762;2023-02-26T17:52:49;2.20;92.10
23703;DHT22;12030;50.376;8.762;2023-02-26T17:55:14;2.10;92.10
23703;DHT22;12030;50.376;8.762;2023-02-26T17:57:40;2.10;92.00
23703;DHT22;12030;50.376;8.762;2023-02-26T18:00:06;2.00;92.00
23703;DHT22;12030;50.376;8.762;2023-02-26T18:02:33;2.00;92.20
23703;DHT22;12030;50.376;8.762;2023-02-26T18:04:58;2.00;92.20
23703;DHT22;12030;50.376;8.762;2023-02-26T18:07:24;1.90;92.30
23703;DHT22;12030;50.376;8.762;2023-02-26T18:09:49;1.90;92.40
23703;DHT22;12030;50.376;8.762;2023-02-26T18:12:18;1.90;92.70
23703;DHT22;12030;50.376;8.762;2023-02-26T18:14:44;1.80;92.50
23703;DHT22;12030;50.376;8.762;2023-02-26T18:17:17;1.80;92.70
23703;DHT22;12030;50.376;8.762;2023-02-26T18:19:43;1.80;92.60
23703;DHT22;12030;50.376;8.762;2023-02-26T18:22:14;1.80;92.50
23703;DHT22;12030;50.376;8.762;2023-02-26T18:24:41;1.80;92.70
23703;DHT22;12030;50.376;8.762;2023-02-26T18:27:12;1.80;92.60
23703;DHT22;12030;50.376;8.762;2023-02-26T18:29:38;1.80;92.50
23703;DHT22;12030;50.376;8.762;2023-02-26T18:32:03;1.70;92.50
23703;DHT22;12030;50.376;8.762;2023-02-26T18:34:29;1.80;92.60
23703;DHT22;12030;50.376;8.762;2023-02-26T18:36:55;1.70;92.60
23703;DHT22;12030;50.376;8.762;2023-02-26T18:39:20;1.60;92.60
23703;DHT22;12030;50.376;8.762;2023-02-26T18:41:48;1.60;92.60
23703;DHT22;12030;50.376;8.762;2023-02-26T18:44:13;1.50;92.60
23703;DHT22;12030;50.376;8.762;2023-02-26T18:46:39;1.60;92.60
23703;DHT22;12030;50.376;8.762;2023-02-26T18:49:11;1.60;92.80
23703;DHT22;12030;50.376;8.762;2023-02-26T18:51:40;1.60;92.90